Time;durP1;ratioP1;P1;durP2;ratioP2;P2;SDS_P1;SDS_P2;PMS_P1;PMS_P2;Temp;Humidity;BMP_temperature;BMP_pressure;BME280_temperature;BME280_humidity;BME280_pressure;Samples;Min_cycle;Max_cycle;Signal;HPM_P1;HPM_P2
2022/04/22 00:00:05;;;;;;;;;;;10.70;99.90;;;;;;5114011;28;20488;-48
2022/04/22 00:02:31;;;;;;;;;;;10.60;99.90;;;;;;5113812;28;19931;-47
2022/04/22 00:04:56;;;;;;;;;;;10.60;99.90;;;;;;5114137;28;19924;-47
2022/04/22 00:07:22;;;;;;;;;;;10.50;99.90;;;;;;5114096;28;19924;-48
2022/04/22 00:09:47;;;;;;;;;;;10.50;99.90;;;;;;5113966;28;19923;-48
2022/04/22 00:12:13;;;;;;;;;;;10.50;99.90;;;;;;5113881;28;20359;-48
2022/04/22 00:14:38;;;;;;;;;;;10.40;99.90;;;;;;5113804;28;19977;-46
2022/04/22 00:17:04;;;;;;;;;;;10.40;99.90;;;;;;5113697;28;19967;-49
2022/04/22 00:19:29;;;;;;;;;;;10.40;99.90;;;;;;5113906;28;19977;-48
2022/04/22 00:21:55;;;;;;;;;;;10.30;99.90;;;;;;5113786;28;19924;-48
2022/04/22 00:24:20;;;;;;;;;;;10.30;99.90;;;;;;5113860;28;19924;-47
2022/04/22 00:26:46;;;;;;;;;;;10.30;99.90;;;;;;5114119;28;19931;-47
2022/04/22 00:29:11;;;;;;;;;;;10.30;99.90;;;;;;5113741;28;20377;-47
2022/04/22 00:31:37;;;;;;;;;;;10.30;99.90;;;;;;5095403;28;19931;-47
2022/04/22 00:34:03;;;;;;;;;;;10.30;99.90;;;;;;5113781;28;19928;-47
2022/04/22 00:36:28;;;;;;;;;;;10.30;99.90;;;;;;5095470;28;19977;-48
2022/04/22 00:38:54;;;;;;;;;;;10.20;99.90;;;;;;5113546;28;20051;-51
2022/04/22 00:41:19;;;;;;;;;;;10.20;99.90;;;;;;5113557;28;19923;-48
2022/04/22 00:43:46;;;;;;;;;;;10.20;99.90;;;;;;5113620;28;19970;-47
2022/04/22 00:46:11;;;;;;;;;;;10.20;99.90;;;;;;5113654;28;19967;-46
2022/04/22 00:48:37;;;;;;;;;;;10.10;99.90;;;;;;5113469;28;19931;-48
2022/04/22 00:51:06;;;;;;;;;;;10.10;99.90;;;;;;5113563;28;19927;-48
2022/04/22 00:53:35;;;;;;;;;;;10.10;99.90;;;;;;5095002;28;19923;-48
2022/04/22 00:56:04;;;;;;;;;;;10.00;99.90;;;;;;5113479;28;19985;-49
2022/04/22 00:58:30;;;;;;;;;;;10.00;99.90;;;;;;5095172;28;19976;-47
2022/04/22 01:00:56;;;;;;;;;;;10.00;99.90;;;;;;5113124;28;19924;-47
2022/04/22 01:03:22;;;;;;;;;;;10.00;99.90;;;;;;5113467;28;20010;-48
2022/04/22 01:11:17;;;;;;;;;;;9.90;99.90;;;;;;5117124;28;19992;-47
2022/04/22 01:13:44;;;;;;;;;;;9.90;99.90;;;;;;5117295;28;20432;-49
2022/04/22 01:16:09;;;;;;;;;;;9.90;99.90;;;;;;5117213;28;19931;-47
2022/04/22 01:18:35;;;;;;;;;;;9.80;99.90;;;;;;5117094;28;20284;-49
2022/04/22 01:21:01;;;;;;;;;;;9.80;99.90;;;;;;5117146;28;19975;-49
2022/04/22 01:23:27;;;;;;;;;;;9.80;99.90;;;;;;5117111;28;20415;-47
2022/04/22 01:25:53;;;;;;;;;;;9.70;99.90;;;;;;5116933;28;20006;-48
2022/04/22 01:28:19;;;;;;;;;;;9.70;99.90;;;;;;5117067;28;20301;-48
2022/04/22 01:30:45;;;;;;;;;;;9.70;99.90;;;;;;5116728;28;20305;-48
2022/04/22 01:33:10;;;;;;;;;;;9.70;99.90;;;;;;5116916;28;19930;-49
2022/04/22 01:35:36;;;;;;;;;;;9.60;99.90;;;;;;5116846;28;19946;-48
2022/04/22 01:38:01;;;;;;;;;;;9.60;99.90;;;;;;5081558;28;19924;-48
2022/04/22 01:40:27;;;;;;;;;;;9.60;99.90;;;;;;5116501;28;19923;-49
2022/04/22 01:42:53;;;;;;;;;;;9.60;99.90;;;;;;5116860;28;19924;-48
2022/04/22 01:45:19;;;;;;;;;;;9.50;99.90;;;;;;5116769;28;19923;-48
2022/04/22 01:47:44;;;;;;;;;;;9.50;99.90;;;;;;5098275;28;19924;-47
2022/04/22 01:50:09;;;;;;;;;;;9.50;99.90;;;;;;5098511;28;20002;-49
2022/04/22 01:52:40;;;;;;;;;;;9.40;99.90;;;;;;5116518;28;19931;-48
2022/04/22 01:55:06;;;;;;;;;;;9.40;99.90;;;;;;5116137;28;20389;-47
2022/04/22 01:57:32;;;;;;;;;;;9.40;99.90;;;;;;5116550;28;20006;-47
2022/04/22 01:59:59;;;;;;;;;;;9.40;99.90;;;;;;5116347;28;19923;-48
2022/04/22 02:02:24;;;;;;;;;;;9.40;99.90;;;;;;5116379;28;19931;-47
2022/04/22 02:04:50;;;;;;;;;;;9.40;99.90;;;;;;5116156;28;19924;-47
2022/04/22 02:07:15;;;;;;;;;;;9.40;99.90;;;;;;5116146;28;19924;-47
2022/04/22 02:09:41;;;;;;;;;;;9.30;99.90;;;;;;5115938;28;19924;-48
2022/04/22 02:12:09;;;;;;;;;;;9.30;99.90;;;;;;5116132;28;19923;-47
2022/04/22 02:14:35;;;;;;;;;;;9.30;99.90;;;;;;5097755;28;19967;-47
2022/04/22 02:17:00;;;;;;;;;;;9.20;99.90;;;;;;5115843;28;20024;-47
2022/04/22 02:19:26;;;;;;;;;;;9.20;99.90;;;;;;5115752;28;19953;-48
2022/04/22 02:21:52;;;;;;;;;;;9.20;99.90;;;;;;5115511;28;19967;-49
2022/04/22 02:24:17;;;;;;;;;;;9.10;99.90;;;;;;5115591;28;20464;-47
2022/04/22 02:29:27;;;;;;;;;;;9.10;99.90;;;;;;5115832;28;19924;-48
2022/04/22 02:31:53;;;;;;;;;;;9.00;99.90;;;;;;5115634;28;20286;-48
2022/04/22 02:34:19;;;;;;;;;;;9.00;99.90;;;;;;5115566;28;19927;-46
2022/04/22 02:36:45;;;;;;;;;;;8.90;99.90;;;;;;5115533;28;20014;-48
2022/04/22 02:39:10;;;;;;;;;;;8.90;99.90;;;;;;5115678;28;19966;-50
2022/04/22 02:47:04;;;;;;;;;;;8.80;99.90;;;;;;5115195;28;19970;-47
2022/04/22 02:49:29;;;;;;;;;;;8.80;99.90;;;;;;5115444;28;19967;-46
2022/04/22 02:51:55;;;;;;;;;;;8.70;99.90;;;;;;5115323;28;19924;-50
2022/04/22 02:54:20;;;;;;;;;;;8.70;99.90;;;;;;5114985;28;19924;-47
2022/04/22 02:56:46;;;;;;;;;;;8.60;99.90;;;;;;5115537;28;19923;-49
2022/04/22 02:59:11;;;;;;;;;;;8.60;99.90;;;;;;5096834;28;20429;-47
2022/04/22 03:01:37;;;;;;;;;;;8.60;99.90;;;;;;5114869;28;19924;-50
2022/04/22 03:04:03;;;;;;;;;;;8.60;99.90;;;;;;5115175;28;19971;-48
2022/04/22 03:06:28;;;;;;;;;;;8.60;99.90;;;;;;5115131;28;19924;-49
2022/04/22 03:08:54;;;;;;;;;;;8.50;99.90;;;;;;5115018;28;19931;-46
2022/04/22 03:11:23;;;;;;;;;;;8.50;99.90;;;;;;5114883;28;19924;-48
2022/04/22 03:13:51;;;;;;;;;;;8.50;99.90;;;;;;5114864;28;19940;-48
2022/04/22 03:16:23;;;;;;;;;;;8.40;99.90;;;;;;5114523;28;20395;-48
2022/04/22 03:18:48;;;;;;;;;;;8.40;99.90;;;;;;5114951;28;19931;-49
2022/04/22 03:21:14;;;;;;;;;;;8.40;99.90;;;;;;5114755;28;20297;-47
2022/04/22 03:23:39;;;;;;;;;;;8.40;99.90;;;;;;5115053;28;20384;-47
2022/04/22 03:26:05;;;;;;;;;;;8.40;99.90;;;;;;5114653;28;19930;-51
2022/04/22 03:28:31;;;;;;;;;;;8.40;99.90;;;;;;5096401;28;20010;-49
2022/04/22 03:30:56;;;;;;;;;;;8.40;99.90;;;;;;5114344;28;19923;-47
2022/04/22 03:33:21;;;;;;;;;;;8.40;99.90;;;;;;5113964;28;20018;-51
2022/04/22 03:35:51;;;;;;;;;;;8.40;99.90;;;;;;5114481;28;19931;-47
2022/04/22 03:38:18;;;;;;;;;;;8.30;99.90;;;;;;5114493;28;19946;-47
2022/04/22 03:40:44;;;;;;;;;;;8.30;99.90;;;;;;5114257;28;20015;-47
2022/04/22 03:43:10;;;;;;;;;;;8.30;99.90;;;;;;5114274;28;19963;-47
2022/04/22 03:45:36;;;;;;;;;;;8.30;99.90;;;;;;5114419;28;19924;-48
2022/04/22 03:48:04;;;;;;;;;;;8.30;99.90;;;;;;5114049;28;20404;-52
2022/04/22 03:50:30;;;;;;;;;;;8.30;99.90;;;;;;5114578;28;20322;-51
2022/04/22 03:52:55;;;;;;;;;;;8.30;99.90;;;;;;5095926;28;19923;-48
2022/04/22 03:55:21;;;;;;;;;;;8.30;99.90;;;;;;5114186;28;20293;-48
2022/04/22 04:00:32;;;;;;;;;;;8.20;99.90;;;;;;5114057;28;19953;-50
2022/04/22 04:02:57;;;;;;;;;;;8.20;99.90;;;;;;5113909;28;20389;-48
2022/04/22 04:05:23;;;;;;;;;;;8.20;99.90;;;;;;5113829;28;19931;-51
2022/04/22 04:07:48;;;;;;;;;;;8.10;99.90;;;;;;5114034;28;19931;-47
2022/04/22 04:18:30;;;;;;;;;;;8.10;99.90;;;;;;5113764;28;19931;-47
2022/04/22 04:23:41;;;;;;;;;;;8.20;99.90;;;;;;5113813;28;19924;-47
2022/04/22 04:26:07;;;;;;;;;;;8.20;99.90;;;;;;5113734;28;20332;-48
2022/04/22 04:28:36;;;;;;;;;;;8.20;99.90;;;;;;5113693;28;19924;-47
2022/04/22 04:31:02;;;;;;;;;;;8.20;99.90;;;;;;5113983;28;19923;-48
2022/04/22 04:33:28;;;;;;;;;;;8.20;99.90;;;;;;5113460;28;19934;-49
2022/04/22 04:35:54;;;;;;;;;;;8.20;99.90;;;;;;5113561;28;20373;-47
2022/04/22 04:38:20;;;;;;;;;;;8.20;99.90;;;;;;5113509;28;19931;-52
2022/04/22 04:40:46;;;;;;;;;;;8.20;99.90;;;;;;5113564;28;19930;-52
2022/04/22 04:43:11;;;;;;;;;;;8.20;99.90;;;;;;5114521;28;19924;-53
2022/04/22 04:45:37;;;;;;;;;;;8.20;99.90;;;;;;5117793;28;19924;-48
2022/04/22 04:48:03;;;;;;;;;;;8.20;99.90;;;;;;5117455;28;20305;-49
2022/04/22 04:50:29;;;;;;;;;;;8.20;99.90;;;;;;5117530;28;19924;-51
2022/04/22 04:52:54;;;;;;;;;;;8.20;99.90;;;;;;5117724;28;20006;-52
2022/04/22 04:55:20;;;;;;;;;;;8.20;99.90;;;;;;5117751;28;20023;-47
2022/04/22 04:57:45;;;;;;;;;;;8.20;99.90;;;;;;5117516;28;19923;-48
2022/04/22 05:00:11;;;;;;;;;;;8.20;99.90;;;;;;5117421;28;19924;-48
2022/04/22 05:02:38;;;;;;;;;;;8.20;99.90;;;;;;5117186;28;19930;-47
2022/04/22 05:05:05;;;;;;;;;;;8.20;99.90;;;;;;5117491;28;19935;-48
2022/04/22 05:07:30;;;;;;;;;;;8.20;99.90;;;;;;5117391;28;19924;-49
2022/04/22 05:09:56;;;;;;;;;;;8.20;99.90;;;;;;5082399;28;19930;-49
2022/04/22 05:12:21;;;;;;;;;;;8.30;99.90;;;;;;5117078;28;19969;-51
2022/04/22 05:14:47;;;;;;;;;;;8.30;99.90;;;;;;5117102;28;19964;-49
2022/04/22 05:17:12;;;;;;;;;;;8.30;99.90;;;;;;5116880;28;20403;-49
2022/04/22 05:19:38;;;;;;;;;;;8.40;99.90;;;;;;5099039;28;19924;-51
2022/04/22 05:22:03;;;;;;;;;;;8.30;99.90;;;;;;5117044;28;19973;-48
2022/04/22 05:24:31;;;;;;;;;;;8.40;99.90;;;;;;5117027;28;19930;-53
2022/04/22 05:26:56;;;;;;;;;;;8.40;99.90;;;;;;5081900;28;19989;-53
2022/04/22 05:34:50;;;;;;;;;;;8.50;99.90;;;;;;5116715;28;20377;-48
2022/04/22 05:37:15;;;;;;;;;;;8.50;99.90;;;;;;5116839;28;19924;-49
2022/04/22 05:39:43;;;;;;;;;;;8.60;99.90;;;;;;5116591;28;20024;-48
2022/04/22 05:42:09;;;;;;;;;;;8.60;99.90;;;;;;5116878;28;19971;-49
2022/04/22 05:44:35;;;;;;;;;;;8.60;99.90;;;;;;5116742;28;19959;-49
2022/04/22 05:47:00;;;;;;;;;;;8.60;99.90;;;;;;5116738;28;19924;-48
2022/04/22 05:49:27;;;;;;;;;;;8.60;99.90;;;;;;5116612;28;19930;-51
2022/04/22 05:51:54;;;;;;;;;;;8.70;99.90;;;;;;5116226;28;19931;-46
2022/04/22 05:54:20;;;;;;;;;;;8.60;99.90;;;;;;5116293;28;20374;-49
2022/04/22 05:56:45;;;;;;;;;;;8.60;99.90;;;;;;5115623;28;19931;-48
2022/04/22 05:59:11;;;;;;;;;;;8.70;99.90;;;;;;5116304;28;19931;-47
2022/04/22 06:01:36;;;;;;;;;;;8.60;99.90;;;;;;5116236;28;19931;-48
2022/04/22 06:04:02;;;;;;;;;;;8.70;99.90;;;;;;5116356;28;19923;-46
2022/04/22 06:06:27;;;;;;;;;;;8.70;99.90;;;;;;5097884;28;20350;-49
2022/04/22 06:11:37;;;;;;;;;;;8.90;99.90;;;;;;5116415;28;20401;-49
2022/04/22 06:14:02;;;;;;;;;;;9.00;99.90;;;;;;5116209;28;19923;-52
2022/04/22 06:16:28;;;;;;;;;;;9.10;99.90;;;;;;5116103;28;20433;-46
2022/04/22 06:18:54;;;;;;;;;;;9.30;99.90;;;;;;5115859;28;19994;-48
2022/04/22 06:21:19;;;;;;;;;;;9.40;99.90;;;;;;5115869;28;19924;-47
2022/04/22 06:23:45;;;;;;;;;;;9.60;99.90;;;;;;5115898;28;19927;-49
2022/04/22 06:26:10;;;;;;;;;;;9.90;99.90;;;;;;5115945;28;20400;-47
2022/04/22 06:28:36;;;;;;;;;;;10.00;99.90;;;;;;5097726;28;19932;-51
2022/04/22 06:31:01;;;;;;;;;;;10.20;99.90;;;;;;5115771;28;19928;-48
2022/04/22 06:33:27;;;;;;;;;;;10.30;99.90;;;;;;5115629;28;20374;-49
2022/04/22 06:35:53;;;;;;;;;;;10.60;99.90;;;;;;5115728;28;19924;-49
2022/04/22 06:38:18;;;;;;;;;;;10.70;99.90;;;;;;5097327;28;19924;-47
2022/04/22 06:46:20;;;;;;;;;;;12.10;99.90;;;;;;5115245;28;19924;-48
2022/04/22 06:48:46;;;;;;;;;;;12.30;99.90;;;;;;5115133;28;19923;-50
2022/04/22 06:51:12;;;;;;;;;;;12.20;99.90;;;;;;5115232;28;19924;-49
2022/04/22 06:53:37;;;;;;;;;;;12.10;99.90;;;;;;5115316;28;19924;-48
2022/04/22 06:56:05;;;;;;;;;;;12.00;99.90;;;;;;5115096;28;20053;-51
2022/04/22 06:58:31;;;;;;;;;;;12.10;99.90;;;;;;5115202;28;20039;-50
2022/04/22 07:00:56;;;;;;;;;;;12.30;99.90;;;;;;5115090;28;19950;-50
2022/04/22 07:03:22;;;;;;;;;;;12.00;99.90;;;;;;5114962;28;19930;-47
2022/04/22 07:05:48;;;;;;;;;;;12.00;99.90;;;;;;5096721;28;20385;-49
2022/04/22 07:08:14;;;;;;;;;;;12.00;99.90;;;;;;5079128;28;20300;-51
2022/04/22 07:10:41;;;;;;;;;;;11.90;99.90;;;;;;5114985;28;20014;-48
2022/04/22 07:13:06;;;;;;;;;;;12.10;99.90;;;;;;5114953;28;19924;-51
2022/04/22 07:15:32;;;;;;;;;;;12.20;99.90;;;;;;5114980;28;20288;-47
2022/04/22 07:17:58;;;;;;;;;;;12.50;99.90;;;;;;5114671;28;19931;-47
2022/04/22 07:20:23;;;;;;;;;;;12.90;99.90;;;;;;5114800;28;20015;-47
2022/04/22 07:22:49;;;;;;;;;;;13.10;99.90;;;;;;5114771;28;20335;-49
2022/04/22 07:25:15;;;;;;;;;;;13.00;99.90;;;;;;5114724;28;19966;-50
2022/04/22 07:27:42;;;;;;;;;;;12.80;99.90;;;;;;5114665;28;19928;-50
2022/04/22 07:30:09;;;;;;;;;;;12.30;99.90;;;;;;5114637;28;19924;-49
2022/04/22 07:32:37;;;;;;;;;;;12.00;99.90;;;;;;5114443;28;19924;-51
2022/04/22 07:35:04;;;;;;;;;;;11.90;99.90;;;;;;5114596;28;19924;-47
2022/04/22 07:37:29;;;;;;;;;;;11.80;99.90;;;;;;5114405;28;19930;-46
2022/04/22 07:39:55;;;;;;;;;;;11.80;99.90;;;;;;5114341;28;19924;-48
2022/04/22 07:42:21;;;;;;;;;;;11.70;99.90;;;;;;5114765;28;20061;-48
2022/04/22 07:47:32;;;;;;;;;;;11.80;99.90;;;;;;5114374;28;19931;-50
2022/04/22 07:49:58;;;;;;;;;;;12.10;99.90;;;;;;5114121;28;20305;-49
2022/04/22 07:52:24;;;;;;;;;;;12.00;99.90;;;;;;5114369;28;19931;-51
2022/04/22 07:54:49;;;;;;;;;;;12.00;99.90;;;;;;5114136;28;19927;-50
2022/04/22 07:57:15;;;;;;;;;;;12.10;99.90;;;;;;5113971;28;19950;-51
2022/04/22 07:59:41;;;;;;;;;;;12.10;99.90;;;;;;5113873;28;20010;-48
2022/04/22 08:02:06;;;;;;;;;;;12.10;99.90;;;;;;5113813;28;20312;-47
2022/04/22 08:04:32;;;;;;;;;;;12.20;99.90;;;;;;5114392;28;19924;-50
2022/04/22 08:06:57;;;;;;;;;;;12.30;99.90;;;;;;5114023;28;20377;-52
2022/04/22 08:09:23;;;;;;;;;;;12.50;99.90;;;;;;5113940;28;19941;-48
2022/04/22 08:11:48;;;;;;;;;;;12.70;99.90;;;;;;5113948;28;19931;-48
2022/04/22 08:14:14;;;;;;;;;;;12.70;99.90;;;;;;5113786;28;19924;-48
2022/04/22 08:16:39;;;;;;;;;;;12.60;99.90;;;;;;5114029;28;19923;-47
2022/04/22 08:19:05;;;;;;;;;;;12.70;99.90;;;;;;5113403;28;20372;-51
2022/04/22 08:21:33;;;;;;;;;;;12.50;99.90;;;;;;5113737;28;20061;-52
2022/04/22 08:24:01;;;;;;;;;;;12.70;99.90;;;;;;5113924;28;20006;-49
2022/04/22 08:26:30;;;;;;;;;;;12.70;99.90;;;;;;5113758;28;19924;-48
2022/04/22 08:28:55;;;;;;;;;;;12.80;99.90;;;;;;5113662;28;19924;-48
2022/04/22 08:31:20;;;;;;;;;;;13.20;99.90;;;;;;5113839;28;19931;-51
2022/04/22 08:33:48;;;;;;;;;;;13.20;99.90;;;;;;5113678;28;20393;-47
2022/04/22 08:36:14;;;;;;;;;;;13.20;99.90;;;;;;5113644;28;19969;-49
2022/04/22 08:38:40;;;;;;;;;;;13.40;99.90;;;;;;5113533;28;19928;-49
2022/04/22 08:41:07;;;;;;;;;;;13.50;99.90;;;;;;5095256;28;19930;-49
2022/04/22 08:43:33;;;;;;;;;;;13.70;99.90;;;;;;5113714;28;20014;-48
2022/04/22 08:45:58;;;;;;;;;;;13.70;99.90;;;;;;5113746;28;19959;-48
2022/04/22 08:51:08;;;;;;;;;;;13.80;99.70;;;;;;5113587;28;20026;-49
2022/04/22 08:53:34;;;;;;;;;;;13.70;99.90;;;;;;5094905;28;20007;-47
2022/04/22 08:56:01;;;;;;;;;;;13.90;99.90;;;;;;5113665;28;19946;-47
2022/04/22 08:58:27;;;;;;;;;;;14.20;99.90;;;;;;5113465;28;20305;-49
2022/04/22 09:00:54;;;;;;;;;;;14.20;99.90;;;;;;5113424;28;19967;-50
2022/04/22 09:03:20;;;;;;;;;;;14.40;99.90;;;;;;5113521;28;19931;-51
2022/04/22 09:05:46;;;;;;;;;;;14.30;96.80;;;;;;5095112;28;20305;-48
2022/04/22 09:08:11;;;;;;;;;;;14.40;96.60;;;;;;5113300;28;20300;-48
2022/04/22 09:10:38;;;;;;;;;;;14.70;99.90;;;;;;5078275;28;19931;-47
2022/04/22 09:13:09;;;;;;;;;;;14.70;96.50;;;;;;5113271;28;20486;-46
2022/04/22 09:15:35;;;;;;;;;;;14.60;95.70;;;;;;5113431;28;19924;-49
2022/04/22 09:18:11;;;;;;;;;;;14.60;94.60;;;;;;5113270;28;19924;-50
2022/04/22 09:20:37;;;;;;;;;;;14.80;99.90;;;;;;5113215;28;19924;-50
2022/04/22 09:23:19;;;;;;;;;;;14.80;99.90;;;;;;5113001;28;19923;-47
2022/04/22 09:25:45;;;;;;;;;;;14.80;99.90;;;;;;5112908;28;20068;-48
2022/04/22 09:28:11;;;;;;;;;;;14.90;99.90;;;;;;5095398;28;20392;-50
2022/04/22 09:30:36;;;;;;;;;;;15.00;99.40;;;;;;5114637;28;19923;-48
2022/04/22 09:33:02;;;;;;;;;;;15.10;92.20;;;;;;5116937;28;20374;-52
2022/04/22 09:35:29;;;;;;;;;;;15.10;91.30;;;;;;5116732;28;19931;-49
2022/04/22 09:43:25;;;;;;;;;;;15.50;89.80;;;;;;5116597;28;19952;-52
2022/04/22 09:45:51;;;;;;;;;;;15.40;89.90;;;;;;5116579;28;20014;-47
2022/04/22 09:48:20;;;;;;;;;;;15.50;88.80;;;;;;5116714;28;20293;-48
2022/04/22 09:50:46;;;;;;;;;;;15.60;83.40;;;;;;5116627;28;19961;-50
2022/04/22 09:53:14;;;;;;;;;;;15.50;83.10;;;;;;5116319;28;19924;-48
2022/04/22 09:55:47;;;;;;;;;;;15.60;82.90;;;;;;5116461;28;19977;-50
2022/04/22 09:58:12;;;;;;;;;;;15.70;81.90;;;;;;5116238;28;19924;-48
2022/04/22 10:00:38;;;;;;;;;;;15.90;92.80;;;;;;5116389;28;20262;-47
2022/04/22 10:03:06;;;;;;;;;;;15.90;81.10;;;;;;5116379;28;20022;-47
2022/04/22 10:05:32;;;;;;;;;;;16.00;81.80;;;;;;5098212;28;19924;-49
2022/04/22 10:08:00;;;;;;;;;;;16.00;79.40;;;;;;5116265;28;19931;-47
2022/04/22 10:10:28;;;;;;;;;;;16.10;80.10;;;;;;5116058;28;20274;-48
2022/04/22 10:12:54;;;;;;;;;;;16.20;80.50;;;;;;5116046;28;19978;-52
2022/04/22 10:15:21;;;;;;;;;;;16.10;82.10;;;;;;5116166;28;19966;-47
2022/04/22 10:17:46;;;;;;;;;;;16.30;81.80;;;;;;5116034;28;19992;-46
2022/04/22 10:20:12;;;;;;;;;;;16.40;80.20;;;;;;5097488;28;19924;-48
2022/04/22 10:22:37;;;;;;;;;;;16.20;76.90;;;;;;5115836;28;20015;-47
2022/04/22 10:25:07;;;;;;;;;;;16.30;77.30;;;;;;5115723;28;20301;-50
2022/04/22 10:27:37;;;;;;;;;;;16.30;77.60;;;;;;5115591;28;19924;-51
2022/04/22 10:30:05;;;;;;;;;;;16.30;76.90;;;;;;5115930;28;19923;-52
2022/04/22 10:32:33;;;;;;;;;;;16.40;78.50;;;;;;5115801;28;19957;-50
2022/04/22 10:35:00;;;;;;;;;;;16.30;77.20;;;;;;5115574;28;20370;-49
2022/04/22 10:37:31;;;;;;;;;;;16.50;78.50;;;;;;5115683;28;19924;-48
2022/04/22 10:39:57;;;;;;;;;;;16.60;78.90;;;;;;5115476;28;19930;-49
2022/04/22 10:42:29;;;;;;;;;;;16.60;85.10;;;;;;5115410;28;19924;-48
2022/04/22 10:47:41;;;;;;;;;;;16.60;76.60;;;;;;5115480;28;19928;-47
2022/04/22 10:50:26;;;;;;;;;;;16.80;75.50;;;;;;5115406;28;19923;-51
2022/04/22 10:53:07;;;;;;;;;;;17.00;75.70;;;;;;5115399;28;19930;-49
2022/04/22 10:55:37;;;;;;;;;;;17.30;72.60;;;;;;5115224;28;19975;-48
2022/04/22 10:58:19;;;;;;;;;;;17.40;72.60;;;;;;5115345;28;19969;-48
2022/04/22 11:00:49;;;;;;;;;;;17.20;70.10;;;;;;5115180;28;19923;-47
2022/04/22 11:03:19;;;;;;;;;;;17.30;71.70;;;;;;5115369;28;19923;-49
2022/04/22 11:06:07;;;;;;;;;;;17.50;71.10;;;;;;5115211;28;19977;-51
2022/04/22 11:08:39;;;;;;;;;;;17.20;69.30;;;;;;5115261;28;19930;-48
2022/04/22 11:11:08;;;;;;;;;;;17.30;69.50;;;;;;5115411;28;19923;-49
2022/04/22 11:13:33;;;;;;;;;;;17.40;70.40;;;;;;5115157;28;20006;-49
2022/04/22 11:16:03;;;;;;;;;;;17.40;71.10;;;;;;5114764;28;20065;-51
2022/04/22 11:18:29;;;;;;;;;;;17.50;71.10;;;;;;5097052;28;19923;-50
2022/04/22 11:21:00;;;;;;;;;;;17.40;71.00;;;;;;5114651;28;19923;-52
2022/04/22 11:23:33;;;;;;;;;;;17.60;70.40;;;;;;5114708;28;19928;-52
2022/04/22 11:25:58;;;;;;;;;;;17.60;66.70;;;;;;5114644;28;19928;-48
2022/04/22 11:28:24;;;;;;;;;;;17.60;68.10;;;;;;5114852;28;19995;-50
2022/04/22 11:30:50;;;;;;;;;;;17.60;68.20;;;;;;5114769;28;19923;-47
2022/04/22 11:33:19;;;;;;;;;;;17.80;69.70;;;;;;5114616;28;20010;-47
2022/04/22 11:35:47;;;;;;;;;;;17.90;69.20;;;;;;5096673;28;20436;-49
2022/04/22 11:38:13;;;;;;;;;;;18.10;92.60;;;;;;5114388;28;20343;-48
2022/04/22 11:40:39;;;;;;;;;;;18.10;68.70;;;;;;5096396;28;19955;-49
2022/04/22 11:43:09;;;;;;;;;;;18.10;83.90;;;;;;5114589;28;19924;-49
2022/04/22 11:45:34;;;;;;;;;;;;;;;;;;5114489;28;19930;-53
2022/04/22 11:48:00;;;;;;;;;;;;;;;;;;5114362;28;20002;-49
2022/04/22 11:50:26;;;;;;;;;;;;;;;;;;5114160;28;19946;-49
2022/04/22 11:52:53;;;;;;;;;;;18.20;82.30;;;;;;5113466;28;19946;-53
2022/04/22 11:55:19;;;;;;;;;;;;;;;;;;5114253;28;19976;-51
2022/04/22 11:57:45;;;;;;;;;;;18.10;81.90;;;;;;5114231;28;20382;-49
2022/04/22 12:05:43;;;;;;;;;;;;;;;;;;5114107;28;19976;-49
2022/04/22 12:08:11;;;;;;;;;;;18.40;73.90;;;;;;5114093;28;19931;-50
2022/04/22 12:10:37;;;;;;;;;;;18.50;72.70;;;;;;5114073;28;20006;-49
2022/04/22 12:13:03;;;;;;;;;;;18.60;66.30;;;;;;5114105;28;19924;-53
2022/04/22 12:15:28;;;;;;;;;;;18.60;67.70;;;;;;5095607;28;19924;-49
2022/04/22 12:17:54;;;;;;;;;;;18.80;65.40;;;;;;5113824;28;20320;-51
2022/04/22 12:20:19;;;;;;;;;;;18.80;65.10;;;;;;5113868;28;20393;-50
2022/04/22 12:22:48;;;;;;;;;;;18.70;66.10;;;;;;5113963;28;19923;-49
2022/04/22 12:25:21;;;;;;;;;;;18.80;66.40;;;;;;5095794;28;19923;-49
2022/04/22 12:28:07;;;;;;;;;;;19.10;66.40;;;;;;5095562;28;19931;-50
2022/04/22 12:30:40;;;;;;;;;;;18.70;64.40;;;;;;5113687;28;19931;-49
2022/04/22 12:33:06;;;;;;;;;;;18.90;65.80;;;;;;5113823;28;20014;-50
2022/04/22 12:35:31;;;;;;;;;;;18.80;63.90;;;;;;5113606;28;20393;-48
2022/04/22 12:37:57;;;;;;;;;;;19.00;65.20;;;;;;5113837;28;19924;-50
2022/04/22 12:40:23;;;;;;;;;;;18.80;64.10;;;;;;5095634;28;20334;-48
2022/04/22 12:42:49;;;;;;;;;;;19.00;65.30;;;;;;5113587;28;19923;-49
2022/04/22 12:53:43;;;;;;;;;;;19.00;65.60;;;;;;5113534;28;19946;-50
2022/04/22 12:56:09;;;;;;;;;;;19.00;63.20;;;;;;5113324;28;20399;-49
2022/04/22 12:58:53;;;;;;;;;;;19.20;63.60;;;;;;5113440;28;19969;-49
2022/04/22 13:01:19;;;;;;;;;;;19.40;64.60;;;;;;5113404;28;20333;-49
2022/04/22 13:03:45;;;;;;;;;;;19.40;63.50;;;;;;5113443;28;20373;-52
2022/04/22 13:06:11;;;;;;;;;;;19.10;62.30;;;;;;5115912;28;19923;-49
2022/04/22 13:08:36;;;;;;;;;;;18.90;63.90;;;;;;5117462;28;19924;-49
2022/04/22 13:11:02;;;;;;;;;;;18.90;62.70;;;;;;5117400;28;19967;-50
2022/04/22 13:13:27;;;;;;;;;;;18.90;64.20;;;;;;5117390;28;19930;-49
2022/04/22 13:15:53;;;;;;;;;;;18.80;64.40;;;;;;5117351;28;20397;-52
2022/04/22 13:18:20;;;;;;;;;;;18.50;64.50;;;;;;5117107;28;19924;-52
2022/04/22 13:20:46;;;;;;;;;;;18.50;65.30;;;;;;5098770;28;19935;-49
2022/04/22 13:23:11;;;;;;;;;;;18.90;67.60;;;;;;5117280;28;20313;-51
2022/04/22 13:25:37;;;;;;;;;;;18.60;65.40;;;;;;5116924;28;20369;-53
2022/04/22 13:28:02;;;;;;;;;;;18.40;65.20;;;;;;5117062;28;19931;-50
2022/04/22 13:30:28;;;;;;;;;;;;;;;;;;5117012;28;19997;-49
2022/04/22 13:32:54;;;;;;;;;;;18.40;66.20;;;;;;5116859;28;20365;-51
2022/04/22 13:35:20;;;;;;;;;;;18.70;67.90;;;;;;5116783;28;19924;-50
2022/04/22 13:37:46;;;;;;;;;;;18.90;66.50;;;;;;5116891;28;20010;-52
2022/04/22 13:40:12;;;;;;;;;;;19.20;67.70;;;;;;5116656;28;19978;-50
2022/04/22 13:42:37;;;;;;;;;;;19.50;66.40;;;;;;5116744;28;19930;-52
2022/04/22 13:53:14;;;;;;;;;;;19.30;67.90;;;;;;5116348;28;19924;-50
2022/04/22 13:55:41;;;;;;;;;;;18.80;66.70;;;;;;5116292;28;19924;-48
2022/04/22 13:58:07;;;;;;;;;;;18.80;66.40;;;;;;5116527;28;19928;-49
2022/04/22 14:00:34;;;;;;;;;;;18.70;66.30;;;;;;5116221;28;20289;-48
2022/04/22 14:02:59;;;;;;;;;;;18.60;66.60;;;;;;5098095;28;20014;-52
2022/04/22 14:05:25;;;;;;;;;;;18.60;67.70;;;;;;5116328;28;20011;-51
2022/04/22 14:07:50;;;;;;;;;;;18.70;67.60;;;;;;5116180;28;19924;-49
2022/04/22 14:10:16;;;;;;;;;;;18.70;67.80;;;;;;5116115;28;20026;-51
2022/04/22 14:12:42;;;;;;;;;;;18.80;67.80;;;;;;5116322;28;19977;-49
2022/04/22 14:15:08;;;;;;;;;;;19.00;67.00;;;;;;5116215;28;19923;-49
2022/04/22 14:17:33;;;;;;;;;;;19.10;67.30;;;;;;5097221;28;20010;-53
2022/04/22 14:19:59;;;;;;;;;;;19.00;66.10;;;;;;5097991;28;20022;-48
2022/04/22 14:22:25;;;;;;;;;;;18.50;66.60;;;;;;5115961;28;20354;-49
2022/04/22 14:24:50;;;;;;;;;;;18.40;67.60;;;;;;5115842;28;19923;-48
2022/04/22 14:27:16;;;;;;;;;;;18.40;68.30;;;;;;5097513;28;20289;-48
2022/04/22 14:29:43;;;;;;;;;;;18.50;68.70;;;;;;5115920;28;19990;-51
2022/04/22 14:32:09;;;;;;;;;;;18.20;68.80;;;;;;5115856;28;19931;-51
2022/04/22 14:34:34;;;;;;;;;;;18.00;68.30;;;;;;5115757;28;19923;-51
2022/04/22 14:37:00;;;;;;;;;;;18.30;68.80;;;;;;5115633;28;19924;-47
2022/04/22 14:39:25;;;;;;;;;;;18.60;67.80;;;;;;5115435;28;19928;-48
2022/04/22 14:41:52;;;;;;;;;;;18.80;68.70;;;;;;5115366;28;19942;-48
2022/04/22 14:44:18;;;;;;;;;;;18.80;67.90;;;;;;5115395;28;19930;-50
2022/04/22 14:46:43;;;;;;;;;;;18.70;68.00;;;;;;5115485;28;19924;-52
2022/04/22 14:49:14;;;;;;;;;;;18.90;69.30;;;;;;5115306;28;20437;-49
2022/04/22 14:51:41;;;;;;;;;;;19.10;67.70;;;;;;5115218;28;19924;-52
2022/04/22 14:54:06;;;;;;;;;;;18.50;66.60;;;;;;5115108;28;19924;-47
2022/04/22 14:56:32;;;;;;;;;;;18.30;67.00;;;;;;5097294;28;20354;-51
2022/04/22 14:58:57;;;;;;;;;;;18.50;68.30;;;;;;5115500;28;19977;-50
2022/04/22 15:01:23;;;;;;;;;;;18.20;67.70;;;;;;5114992;28;19924;-47
2022/04/22 15:03:48;;;;;;;;;;;18.10;68.70;;;;;;5115206;28;19924;-47
2022/04/22 15:06:14;;;;;;;;;;;18.20;69.80;;;;;;5096633;28;20305;-49
2022/04/22 15:08:39;;;;;;;;;;;18.30;69.10;;;;;;5096688;28;19947;-48
2022/04/22 15:11:04;;;;;;;;;;;18.30;68.70;;;;;;5115073;28;19924;-50
2022/04/22 15:13:34;;;;;;;;;;;18.50;69.00;;;;;;5096844;28;20408;-51
2022/04/22 15:16:03;;;;;;;;;;;18.90;68.40;;;;;;5114817;28;19924;-48
2022/04/22 15:24:17;;;;;;;;;;;18.80;66.90;;;;;;5114687;28;20444;-47
2022/04/22 15:26:44;;;;;;;;;;;19.00;68.20;;;;;;5095784;28;23184;-52
2022/04/22 15:29:11;;;;;;;;;;;19.00;67.40;;;;;;5113828;28;20381;-48
2022/04/22 15:31:38;;;;;;;;;;;19.00;66.00;;;;;;5114353;28;19924;-48
2022/04/22 15:34:03;;;;;;;;;;;18.70;66.00;;;;;;5096562;28;19928;-49
2022/04/22 15:36:30;;;;;;;;;;;18.50;67.50;;;;;;5114590;28;20389;-48
2022/04/22 15:38:57;;;;;;;;;;;18.40;67.30;;;;;;5114408;28;19924;-50
2022/04/22 15:41:29;;;;;;;;;;;18.60;67.00;;;;;;5114218;28;19924;-49